Time;durP1;ratioP1;P1;durP2;ratioP2;P2;SDS_P1;SDS_P2;PMS_P1;PMS_P2;Temp;Humidity;BMP_temperature;BMP_pressure;BME280_temperature;BME280_humidity;BME280_pressure;Samples;Min_cycle;Max_cycle;Signal;HPM_P1;HPM_P2
2022/08/02 00:00:15;;;;;;;8.48;3.47;;;11.20;99.90;;;;;;5073182;28;20036;-44
2022/08/02 00:02:43;;;;;;;9.13;3.15;;;11.10;99.90;;;;;;5074239;28;20047;-46
2022/08/02 00:05:10;;;;;;;11.50;3.17;;;11.70;99.90;;;;;;5074321;28;20522;-45
2022/08/02 00:07:35;;;;;;;8.52;3.45;;;11.10;99.90;;;;;;5073563;28;20039;-48
2022/08/02 00:10:02;;;;;;;10.73;3.13;;;11.00;99.90;;;;;;5072720;28;20099;-43
2022/08/02 00:12:28;;;;;;;9.38;3.15;;;11.30;99.90;;;;;;5071964;28;20504;-43
2022/08/02 00:14:54;;;;;;;9.20;3.40;;;11.00;99.90;;;;;;5071933;28;20043;-47
2022/08/02 00:17:19;;;;;;;8.55;3.40;;;10.90;99.90;;;;;;5072893;28;20032;-44
2022/08/02 00:19:45;;;;;;;9.43;2.80;;;11.00;99.90;;;;;;5072313;28;20040;-46
2022/08/02 00:22:11;;;;;;;8.95;3.00;;;11.10;99.90;;;;;;5072436;28;20085;-43
2022/08/02 00:24:40;;;;;;;6.78;3.00;;;10.80;99.90;;;;;;5073650;28;20036;-46
2022/08/02 00:27:07;;;;;;;10.25;3.40;;;11.90;99.90;;;;;;5073666;28;20035;-43
2022/08/02 00:29:34;;;;;;;10.93;3.42;;;10.90;99.90;;;;;;5072839;28;20051;-44
2022/08/02 00:31:59;;;;;;;10.80;3.55;;;11.30;99.90;;;;;;5073260;28;20694;-44
2022/08/02 00:34:25;;;;;;;9.20;3.10;;;10.90;99.90;;;;;;5072078;28;20035;-43
2022/08/02 00:36:51;;;;;;;13.32;3.38;;;11.30;99.90;;;;;;5073876;28;20052;-42
2022/08/02 00:39:18;;;;;;;10.30;3.38;;;11.70;99.90;;;;;;5073117;28;20048;-42
2022/08/02 00:41:47;;;;;;;13.13;3.90;;;10.70;99.90;;;;;;5072560;28;20048;-45
2022/08/02 00:44:14;;;;;;;9.15;3.33;;;10.70;99.90;;;;;;5072658;28;20032;-46
2022/08/02 00:46:40;;;;;;;8.48;3.33;;;10.80;99.90;;;;;;5072501;28;20044;-43
2022/08/02 00:49:06;;;;;;;12.45;3.47;;;10.70;99.90;;;;;;5088581;28;20054;-43
2022/08/02 00:51:31;;;;;;;8.00;3.63;;;10.50;99.90;;;;;;5071381;28;20063;-44
2022/08/02 00:53:57;;;;;;;12.95;3.95;;;12.50;99.90;;;;;;5071866;28;20048;-41
2022/08/02 00:56:23;;;;;;;11.43;3.60;;;10.80;99.90;;;;;;5071717;28;20101;-45
2022/08/02 00:58:48;;;;;;;10.35;3.75;;;10.50;99.90;;;;;;5073482;28;20517;-43
2022/08/02 01:01:14;;;;;;;11.88;4.43;;;11.20;99.90;;;;;;5071741;28;20107;-44
2022/08/02 01:03:40;;;;;;;10.88;4.07;;;11.60;99.90;;;;;;5071711;28;20119;-45
2022/08/02 01:06:06;;;;;;;10.80;4.50;;;10.60;99.90;;;;;;5072928;28;20040;-43
2022/08/02 01:08:32;;;;;;;13.40;4.05;;;10.80;99.90;;;;;;5072939;28;20352;-43
2022/08/02 01:10:59;;;;;;;14.70;3.85;;;11.20;99.90;;;;;;5071773;28;20051;-46
2022/08/02 01:13:26;;;;;;;9.48;3.58;;;10.70;99.90;;;;;;5071530;28;20032;-47
2022/08/02 01:16:00;;;;;;;9.38;3.50;;;10.80;99.90;;;;;;5073376;28;20781;-44
2022/08/02 01:18:40;;;;;;;12.48;3.50;;;12.30;99.90;;;;;;5072214;28;20047;-46
2022/08/02 01:21:48;;;;;;;10.73;4.47;;;11.30;99.90;;;;;;5072623;28;20535;-45
2022/08/02 01:24:33;;;;;;;11.73;3.65;;;10.90;99.90;;;;;;5072471;28;20038;-47
2022/08/02 01:27:19;;;;;;;7.50;3.10;;;10.80;99.90;;;;;;5072840;28;20047;-45
2022/08/02 01:29:48;;;;;;;10.43;3.35;;;10.90;99.90;;;;;;5071746;28;20040;-42
2022/08/02 01:32:20;;;;;;;11.55;3.85;;;10.70;99.90;;;;;;5072370;28;20048;-44
2022/08/02 01:34:51;;;;;;;;;;;10.80;99.90;;;;;;5071792;28;20500;-43
2022/08/02 01:37:20;;;;;;;7.25;3.10;;;11.70;99.90;;;;;;5071292;28;19969;-46
2022/08/02 01:39:52;;;;;;;12.63;3.90;;;10.80;99.90;;;;;;5071015;28;20120;-44
2022/08/02 01:42:20;;;;;;;12.77;3.53;;;11.70;99.90;;;;;;5070263;28;20042;-44
2022/08/02 01:44:48;;;;;;;11.57;3.47;;;11.20;99.90;;;;;;5071862;28;20599;-45
2022/08/02 01:47:18;;;;;;;14.77;4.40;;;12.30;99.90;;;;;;5071432;28;20036;-43
2022/08/02 01:49:51;;;;;;;13.75;3.65;;;12.70;99.90;;;;;;5069840;28;20054;-44
2022/08/02 01:52:20;;;;;;;9.27;3.67;;;12.40;99.90;;;;;;5070828;28;20043;-42
2022/08/02 01:55:03;;;;;;;12.70;3.53;;;11.00;99.90;;;;;;5071417;28;20044;-43
2022/08/02 01:57:35;;;;;;;11.20;4.20;;;11.00;99.90;;;;;;5071668;28;20040;-43
2022/08/02 02:00:04;;;;;;;9.02;3.33;;;11.20;99.90;;;;;;5070564;28;20056;-44
2022/08/02 02:02:31;;;;;;;9.48;3.20;;;11.10;99.90;;;;;;5072055;28;20115;-46
2022/08/02 02:04:59;;;;;;;11.90;4.20;;;12.70;99.90;;;;;;5071037;28;20123;-45
2022/08/02 02:07:27;;;;;;;11.45;3.72;;;13.00;99.90;;;;;;5072125;28;20072;-42
2022/08/02 02:09:54;;;;;;;15.32;3.80;;;11.10;99.90;;;;;;5072608;28;20463;-43
2022/08/02 02:12:23;;;;;;;10.15;3.75;;;11.00;99.90;;;;;;5071461;28;20036;-45
2022/08/02 02:14:49;;;;;;;9.68;3.28;;;11.10;99.90;;;;;;5075633;28;20075;-45
2022/08/02 02:17:15;;;;;;;14.88;3.38;;;12.00;99.90;;;;;;5075901;28;20048;-42
2022/08/02 02:19:42;;;;;;;12.05;2.92;;;11.70;99.90;;;;;;5074663;28;20044;-42
2022/08/02 02:22:08;;;;;;;7.55;3.22;;;11.00;99.90;;;;;;5074476;28;20043;-42
2022/08/02 02:24:34;;;;;;;11.63;3.50;;;10.90;99.90;;;;;;5074525;28;20132;-43
2022/08/02 02:27:04;;;;;;;14.00;3.28;;;11.20;99.90;;;;;;5075708;28;20072;-44
2022/08/02 02:29:32;;;;;;;9.82;3.03;;;11.00;99.90;;;;;;5075067;28;20113;-45
2022/08/02 02:32:00;;;;;;;12.77;3.42;;;11.10;99.90;;;;;;5074437;28;20048;-46
2022/08/02 02:34:30;;;;;;;9.52;3.20;;;11.20;99.90;;;;;;5075795;28;20105;-42
2022/08/02 02:37:01;;;;;;;8.52;3.10;;;11.10;99.90;;;;;;5075138;28;20048;-44
2022/08/02 02:39:27;;;;;;;12.68;3.30;;;11.00;99.90;;;;;;5074006;28;20530;-45
2022/08/02 02:41:57;;;;;;;8.90;3.20;;;12.10;99.90;;;;;;5075220;28;20071;-45
2022/08/02 02:44:23;;;;;;;8.98;2.95;;;11.00;99.90;;;;;;5074336;28;20408;-43
2022/08/02 02:46:53;;;;;;;11.18;2.95;;;11.20;99.90;;;;;;5076493;28;20039;-43
2022/08/02 02:49:20;;;;;;;15.02;3.90;;;11.70;99.90;;;;;;5074407;28;20039;-44
2022/08/02 02:51:47;;;;;;;11.13;4.18;;;11.40;99.90;;;;;;5074455;28;20105;-46
2022/08/02 02:54:14;;;;;;;9.30;3.45;;;11.30;99.90;;;;;;5073689;28;20811;-44
2022/08/02 02:56:42;;;;;;;11.52;3.22;;;12.10;99.90;;;;;;5073616;28;20036;-42
2022/08/02 02:59:11;;;;;;;14.63;4.85;;;11.20;99.90;;;;;;5074440;28;20541;-47
2022/08/02 03:01:38;;;;;;;15.45;4.57;;;11.20;99.90;;;;;;5075026;28;20032;-44
2022/08/02 03:04:08;;;;;;;9.82;3.53;;;11.30;99.90;;;;;;5073786;28;20606;-42
2022/08/02 03:06:38;;;;;;;11.80;4.03;;;11.20;99.90;;;;;;5090255;28;20070;-44
2022/08/02 03:09:04;;;;;;;9.98;3.90;;;11.30;99.90;;;;;;5074983;28;20044;-42
2022/08/02 03:11:31;;;;;;;8.88;3.40;;;11.70;99.90;;;;;;5073685;28;20649;-44
2022/08/02 03:13:59;;;;;;;9.00;3.70;;;11.30;99.90;;;;;;5074586;28;20048;-47
2022/08/02 03:16:28;;;;;;;18.05;4.97;;;11.00;99.90;;;;;;5073494;28;20044;-45
2022/08/02 03:18:55;;;;;;;13.65;4.47;;;11.20;99.90;;;;;;5073425;28;20032;-44
2022/08/02 03:21:23;;;;;;;13.32;3.85;;;11.20;99.90;;;;;;5072665;28;20135;-43
2022/08/02 03:23:49;;;;;;;10.20;4.35;;;12.00;99.90;;;;;;5073480;28;20032;-42
2022/08/02 03:26:15;;;;;;;10.10;3.80;;;12.70;99.90;;;;;;5073366;28;20050;-47
2022/08/02 03:28:42;;;;;;;16.08;4.32;;;12.30;99.90;;;;;;5073132;28;20472;-47
2022/08/02 03:31:08;;;;;;;11.70;3.95;;;11.10;99.90;;;;;;5074091;28;20040;-47
2022/08/02 03:33:34;;;;;;;12.45;4.35;;;11.20;99.90;;;;;;5074209;28;20408;-42
2022/08/02 03:36:12;;;;;;;13.48;4.47;;;11.30;99.90;;;;;;5073160;28;20127;-45
2022/08/02 03:38:39;;;;;;;9.45;3.50;;;12.20;99.90;;;;;;5073976;28;20750;-43
2022/08/02 03:41:05;;;;;;;14.18;4.10;;;11.50;99.90;;;;;;5072193;28;20582;-43
2022/08/02 03:43:33;;;;;;;9.75;4.13;;;11.10;99.90;;;;;;5071417;28;20048;-42
2022/08/02 03:46:00;;;;;;;14.45;4.72;;;11.30;99.90;;;;;;5073124;28;20548;-43
2022/08/02 03:48:28;;;;;;;16.52;4.80;;;11.30;99.90;;;;;;5074736;28;20488;-43
2022/08/02 03:50:56;;;;;;;9.95;4.00;;;11.40;99.90;;;;;;5074435;28;20345;-42
2022/08/02 03:53:23;;;;;;;16.02;4.93;;;11.30;99.90;;;;;;5073433;28;20062;-42
2022/08/02 03:55:49;;;;;;;18.30;4.53;;;11.30;99.90;;;;;;5072548;28;20523;-43
2022/08/02 03:58:20;;;;;;;9.85;4.60;;;11.70;99.90;;;;;;5074264;28;20048;-45
2022/08/02 04:00:46;;;;;;;10.27;4.05;;;11.20;99.90;;;;;;5074297;28;20040;-42
2022/08/02 04:03:12;;;;;;;12.50;4.88;;;11.40;99.90;;;;;;5072176;28;20079;-43
2022/08/02 04:05:38;;;;;;;12.48;4.55;;;11.40;99.90;;;;;;5072344;28;20109;-42
2022/08/02 04:08:06;;;;;;;14.38;5.00;;;11.50;99.90;;;;;;5073618;28;20147;-42
2022/08/02 04:11:29;;;;;;;14.85;4.75;;;11.40;99.90;;;;;;5073938;28;20044;-45
2022/08/02 04:13:21;;;;;;;12.40;4.25;;;11.20;99.90;;;;;;5071936;28;20526;-44
2022/08/02 04:15:52;;;;;;;11.13;4.47;;;12.00;99.90;;;;;;5073313;28;20199;-41
2022/08/02 04:18:20;;;;;;;11.20;4.75;;;11.60;99.90;;;;;;5073002;28;20055;-41
2022/08/02 04:20:48;;;;;;;13.68;4.63;;;12.20;99.90;;;;;;5072872;28;20051;-41
2022/08/02 04:23:16;;;;;;;8.07;4.15;;;11.50;99.90;;;;;;5072106;28;20054;-44
2022/08/02 04:25:43;;;;;;;12.10;4.40;;;11.60;99.90;;;;;;5072769;28;20563;-44
2022/08/02 04:28:09;;;;;;;10.90;4.80;;;11.50;99.90;;;;;;5071826;28;20065;-45
2022/08/02 04:30:36;;;;;;;10.75;4.95;;;11.50;99.90;;;;;;5073338;28;20146;-45
2022/08/02 04:33:02;;;;;;;11.52;4.95;;;12.30;99.90;;;;;;5073366;28;20076;-41
2022/08/02 04:35:28;;;;;;;14.13;4.97;;;12.60;99.90;;;;;;5071665;28;20693;-44
2022/08/02 04:37:54;;;;;;;8.52;5.20;;;12.70;99.90;;;;;;5072819;28;20047;-44
2022/08/02 04:40:20;;;;;;;13.23;4.50;;;11.50;99.90;;;;;;5072562;28;20044;-46
2022/08/02 04:42:45;;;;;;;14.25;4.70;;;11.70;99.90;;;;;;5072348;28;20044;-42
2022/08/02 04:45:11;;;;;;;14.48;5.63;;;11.80;99.90;;;;;;5072412;28;20570;-42
2022/08/02 04:47:38;;;;;;;13.55;5.00;;;11.60;99.90;;;;;;5071915;28;20040;-44
2022/08/02 04:50:06;;;;;;;14.68;5.20;;;12.10;99.90;;;;;;5072510;28;20048;-45
2022/08/02 04:52:31;;;;;;;11.25;4.57;;;12.00;99.90;;;;;;5072718;28;20573;-43
2022/08/02 04:54:57;;;;;;;13.45;4.50;;;11.90;99.90;;;;;;5072430;28;20036;-44
2022/08/02 05:00:09;;;;;;;14.15;5.03;;;12.20;99.90;;;;;;5072966;28;20055;-46
2022/08/02 05:02:35;;;;;;;13.25;5.00;;;12.10;99.90;;;;;;5072273;28;20036;-43
2022/08/02 05:05:01;;;;;;;12.07;5.32;;;13.20;99.90;;;;;;5071818;28;20068;-43
2022/08/02 05:07:27;;;;;;;9.93;4.93;;;12.50;99.90;;;;;;5072244;28;20527;-46
2022/08/02 05:09:52;;;;;;;17.50;5.63;;;12.60;99.90;;;;;;5072937;28;20451;-46
2022/08/02 05:12:21;;;;;;;11.27;4.88;;;12.50;99.90;;;;;;5071863;28;20067;-45
2022/08/02 05:14:48;;;;;;;11.93;5.25;;;14.50;99.90;;;;;;5072122;28;20153;-42
2022/08/02 05:17:13;;;;;;;11.85;4.90;;;15.00;99.90;;;;;;5088001;28;20059;-41
2022/08/02 05:19:39;;;;;;;13.57;4.75;;;13.40;99.90;;;;;;5073629;28;20039;-43
2022/08/02 05:22:05;;;;;;;15.40;4.80;;;13.00;99.90;;;;;;5072087;28;20044;-42
2022/08/02 05:24:30;;;;;;;11.63;4.78;;;13.70;99.90;;;;;;5072718;28;20496;-44
2022/08/02 05:26:56;;;;;;;12.30;4.85;;;14.30;99.90;;;;;;5068783;28;20056;-42
2022/08/02 05:29:22;;;;;;;16.80;5.07;;;14.70;99.90;;;;;;5071202;28;20047;-42
2022/08/02 05:31:48;;;;;;;11.00;4.85;;;14.70;99.90;;;;;;5069983;28;20082;-46
2022/08/02 05:34:14;;;;;;;12.13;4.60;;;14.00;99.90;;;;;;5071601;28;20567;-44
2022/08/02 05:36:40;;;;;;;14.10;4.45;;;14.80;99.90;;;;;;5070957;28;20106;-46
2022/08/02 05:39:06;;;;;;;13.43;5.03;;;13.90;99.90;;;;;;5072000;28;20207;-46
2022/08/02 05:41:32;;;;;;;15.65;5.50;;;14.20;99.90;;;;;;5072391;28;20293;-46
2022/08/02 05:43:57;;;;;;;11.85;4.43;;;14.20;99.90;;;;;;5072904;28;20189;-43
2022/08/02 05:46:23;;;;;;;12.18;4.97;;;14.30;99.90;;;;;;5087452;28;20047;-42
2022/08/02 05:48:49;;;;;;;15.95;5.30;;;16.20;99.90;;;;;;5075732;28;20048;-46
2022/08/02 05:51:42;;;;;;;12.07;4.38;;;15.40;99.90;;;;;;5076224;28;20036;-45
2022/08/02 05:54:45;;;;;;;8.02;3.92;;;14.50;99.90;;;;;;5074724;28;20052;-47
2022/08/02 05:57:31;;;;;;;12.65;4.60;;;14.60;99.90;;;;;;5076110;28;20183;-46
2022/08/02 06:00:04;;;;;;;10.95;4.30;;;14.90;99.90;;;;;;5075153;28;20089;-46
2022/08/02 06:03:03;;;;;;;12.40;3.90;;;15.10;99.90;;;;;;5075654;28;20087;-45
2022/08/02 06:05:47;;;;;;;11.70;4.10;;;15.80;99.90;;;;;;5051501;28;20083;-44
2022/08/02 06:08:13;;;;;;;12.90;4.00;;;16.90;99.90;;;;;;5052305;28;20064;-46
2022/08/02 06:10:40;;;;;;;11.43;3.95;;;15.50;99.90;;;;;;5053693;28;20579;-46
2022/08/02 06:13:08;;;;;;;11.30;4.78;;;17.50;99.90;;;;;;5051690;28;20119;-44
2022/08/02 06:15:36;;;;;;;16.45;4.07;;;17.80;99.90;;;;;;5051710;28;20060;-46
2022/08/02 06:18:04;;;;;;;12.65;4.43;;;15.90;99.90;;;;;;5052285;28;20032;-46
2022/08/02 06:20:37;;;;;;;11.35;3.97;;;15.90;99.90;;;;;;5052608;28;20501;-47
2022/08/02 06:23:07;;;;;;;12.77;4.20;;;16.10;99.90;;;;;;5053225;28;20044;-47
2022/08/02 06:25:39;;;;;;;10.43;3.40;;;16.30;99.90;;;;;;5052706;28;20051;-46
2022/08/02 06:28:05;;;;;;;10.27;3.60;;;16.40;99.40;;;;;;5051731;28;20056;-44
2022/08/02 06:30:31;;;;;;;9.93;3.35;;;16.50;98.40;;;;;;5052557;28;20070;-42
2022/08/02 06:32:58;;;;;;;11.15;3.50;;;16.70;97.20;;;;;;5052530;28;20324;-46
2022/08/02 06:35:30;;;;;;;9.38;3.22;;;18.30;96.90;;;;;;5052296;28;20578;-47
2022/08/02 06:37:58;;;;;;;;;;;16.80;96.00;;;;;;5052817;28;20082;-45
2022/08/02 06:40:42;;;;;;;9.27;3.25;;;17.10;94.60;;;;;;5057037;28;20904;-47
2022/08/02 06:43:12;;;;;;;11.02;4.18;;;17.00;94.60;;;;;;5075762;28;20529;-47
2022/08/02 06:45:39;;;;;;;14.13;4.40;;;17.30;93.00;;;;;;5075648;28;20032;-46
2022/08/02 06:48:06;;;;;;;9.63;2.90;;;17.40;92.40;;;;;;5074961;28;20051;-47
2022/08/02 06:50:32;;;;;;;12.73;2.88;;;17.90;91.00;;;;;;5072998;28;20071;-47
2022/08/02 06:53:00;;;;;;;12.90;3.20;;;18.80;89.00;;;;;;5075119;28;20135;-42
2022/08/02 06:55:27;;;;;;;8.75;2.78;;;18.40;87.90;;;;;;5075596;28;20329;-43
2022/08/02 06:57:53;;;;;;;7.05;2.42;;;18.20;73.90;;;;;;5075375;28;20040;-47
2022/08/02 07:00:19;;;;;;;12.38;2.30;;;18.80;72.50;;;;;;5073429;28;20067;-46
2022/08/02 07:02:44;;;;;;;9.45;2.90;;;19.10;62.20;;;;;;5075222;28;20040;-47
2022/08/02 07:05:10;;;;;;;7.38;2.60;;;20.30;54.30;;;;;;5073920;28;20044;-46
2022/08/02 07:07:36;;;;;;;8.10;2.50;;;20.80;47.20;;;;;;5074649;28;20105;-45
2022/08/02 07:10:03;;;;;;;8.38;2.30;;;20.30;46.10;;;;;;5073836;28;20097;-46
2022/08/02 07:12:32;;;;;;;8.82;2.17;;;21.10;20.20;;;;;;5074777;28;20138;-44
2022/08/02 07:14:59;;;;;;;5.18;1.90;;;21.50;1.00;;;;;;5074930;28;20405;-43
2022/08/02 07:17:24;;;;;;;9.35;2.05;;;21.60;1.00;;;;;;5075208;28;20040;-45
2022/08/02 07:19:50;;;;;;;7.70;2.60;;;21.80;1.00;;;;;;5075081;28;20040;-45
2022/08/02 07:22:18;;;;;;;6.45;1.75;;;21.90;99.90;;;;;;5074531;28;20550;-47
2022/08/02 07:24:44;;;;;;;8.02;1.83;;;22.40;99.90;;;;;;5073584;28;20504;-47
2022/08/02 07:27:09;;;;;;;8.88;2.05;;;23.00;99.90;;;;;;5074226;28;20543;-47
2022/08/02 07:29:35;;;;;;;7.35;2.03;;;24.00;99.90;;;;;;5074635;28;20040;-47
2022/08/02 07:32:01;;;;;;;7.55;1.55;;;24.70;99.90;;;;;;5072436;28;20202;-46
2022/08/02 07:34:27;;;;;;;6.68;1.30;;;25.40;99.90;;;;;;5074594;28;20131;-45
2022/08/02 07:36:54;;;;;;;5.28;1.65;;;25.90;99.90;;;;;;5073758;28;20830;-47
2022/08/02 07:39:20;;;;;;;5.57;1.40;;;26.10;99.90;;;;;;5075259;28;20051;-48
2022/08/02 07:41:46;;;;;;;7.90;1.60;;;27.70;99.90;;;;;;5075119;28;20052;-47
2022/08/02 07:44:12;;;;;;;4.38;1.30;;;26.80;99.90;;;;;;5073612;28;20043;-46
2022/08/02 07:46:37;;;;;;;4.90;1.10;;;27.10;99.90;;;;;;5074049;28;20075;-48
2022/08/02 07:49:03;;;;;;;5.25;1.25;;;27.40;99.90;;;;;;5073985;28;20052;-47
2022/08/02 07:51:32;;;;;;;8.73;1.50;;;27.00;99.90;;;;;;5073815;28;20064;-49
2022/08/02 07:53:57;;;;;;;5.15;1.35;;;26.90;99.90;;;;;;5073970;28;20381;-44
2022/08/02 07:56:23;;;;;;;7.20;1.50;;;26.00;99.90;;;;;;5075134;28;20040;-47
2022/08/02 07:58:49;;;;;;;5.93;1.30;;;25.50;99.90;;;;;;5073342;28;20161;-48
2022/08/02 08:01:14;;;;;;;4.80;1.13;;;25.00;99.90;;;;;;5073695;28;20508;-48
2022/08/02 08:03:40;;;;;;;5.70;1.50;;;24.70;99.90;;;;;;5074832;28;20108;-48
2022/08/02 08:06:09;;;;;;;5.00;0.90;;;24.70;99.90;;;;;;5073687;28;20112;-45
2022/08/02 08:08:55;;;;;;;3.58;1.00;;;24.60;99.90;;;;;;5073478;28;21071;-47
2022/08/02 08:11:23;;;;;;;4.05;0.98;;;24.50;99.90;;;;;;5050957;28;20076;-48
2022/08/02 08:13:49;;;;;;;4.18;0.90;;;24.20;99.90;;;;;;5034920;28;20044;-46
2022/08/02 08:16:15;;;;;;;3.85;0.98;;;24.00;99.90;;;;;;5050478;28;20505;-45
2022/08/02 08:18:41;;;;;;;8.10;1.05;;;23.70;99.90;;;;;;5050147;28;20040;-45
2022/08/02 08:21:06;;;;;;;5.25;1.10;;;23.70;99.90;;;;;;5050941;28;21200;-48
2022/08/02 08:23:32;;;;;;;1.75;0.75;;;23.50;99.90;;;;;;5050995;28;20053;-44
2022/08/02 08:25:59;;;;;;;8.18;1.08;;;23.10;99.90;;;;;;5050521;28;20045;-48
2022/08/02 08:28:25;;;;;;;5.32;1.25;;;22.90;99.90;;;;;;5050853;28;20052;-49
2022/08/02 08:30:51;;;;;;;5.13;0.85;;;22.70;99.90;;;;;;5050390;28;20218;-47
2022/08/02 08:33:16;;;;;;;6.05;1.30;;;22.80;99.90;;;;;;5050425;28;20174;-44
2022/08/02 08:35:42;;;;;;;4.75;1.70;;;22.60;99.90;;;;;;5049813;28;20056;-48
2022/08/02 08:38:08;;;;;;;4.53;1.30;;;22.70;99.90;;;;;;5049480;28;20449;-49
2022/08/02 08:40:34;;;;;;;4.32;1.42;;;23.10;99.90;;;;;;5050669;28;20528;-47
2022/08/02 08:43:05;;;;;;;4.38;1.00;;;23.40;99.90;;;;;;5049109;28;20149;-45
2022/08/02 08:45:31;;;;;;;4.68;0.98;;;23.70;99.90;;;;;;5050386;28;20117;-48
2022/08/02 08:48:06;;;;;;;3.50;0.88;;;23.70;99.90;;;;;;5056233;28;20516;-45
2022/08/02 08:50:38;;;;;;;3.42;0.90;;;23.20;99.90;;;;;;5073230;28;20488;-46
2022/08/02 08:53:06;;;;;;;4.57;1.08;;;23.10;99.90;;;;;;5072387;28;20044;-48
2022/08/02 08:55:34;;;;;;;3.67;1.20;;;23.20;99.90;;;;;;5073415;28;20048;-48
2022/08/02 08:58:01;;;;;;;4.53;1.05;;;22.80;99.90;;;;;;5073137;28;20123;-47
2022/08/02 09:00:30;;;;;;;6.05;1.00;;;23.00;99.90;;;;;;5073524;28;20048;-46
2022/08/02 09:02:56;;;;;;;4.28;1.00;;;23.00;99.90;;;;;;5074083;28;20055;-49
2022/08/02 09:05:25;;;;;;;7.47;1.10;;;23.00;99.90;;;;;;5070620;28;20134;-48
2022/08/02 09:07:52;;;;;;;4.97;0.90;;;24.90;99.90;;;;;;5072796;28;20154;-48
2022/08/02 09:10:43;;;;;;;10.35;1.30;;;22.90;99.90;;;;;;5074600;28;20055;-44
2022/08/02 09:13:11;;;;;;;6.13;1.08;;;23.10;99.90;;;;;;5074020;28;20064;-46
2022/08/02 09:15:38;;;;;;;4.00;1.10;;;23.30;99.90;;;;;;5073414;28;20054;-48
2022/08/02 09:18:05;;;;;;;6.07;1.70;;;23.60;99.90;;;;;;5073335;28;20048;-48
2022/08/02 09:20:49;;;;;;;2.90;0.93;;;24.00;99.90;;;;;;5072299;28;20730;-48
2022/08/02 09:23:15;;;;;;;5.53;1.10;;;24.50;99.90;;;;;;5075602;28;20052;-50
2022/08/02 09:25:41;;;;;;;1.70;0.77;;;24.70;99.90;;;;;;5076567;28;20500;-48
2022/08/02 09:28:06;;;;;;;4.88;1.00;;;25.70;99.90;;;;;;5077442;28;20067;-48
2022/08/02 09:30:41;;;;;;;3.25;1.17;;;25.00;99.90;;;;;;5058359;28;20052;-46
2022/08/02 09:33:08;;;;;;;5.72;1.20;;;25.20;99.90;;;;;;5076378;28;20410;-50
2022/08/02 09:35:36;;;;;;;4.55;0.93;;;25.10;99.90;;;;;;5076900;28;20032;-49
2022/08/02 09:38:13;;;;;;;6.57;1.25;;;25.10;99.90;;;;;;5075564;28;20036;-44
2022/08/02 09:40:40;;;;;;;4.97;1.75;;;24.70;99.90;;;;;;5076487;28;20048;-48
2022/08/02 09:43:09;;;;;;;4.30;1.20;;;24.60;99.90;;;;;;5077150;28;20036;-47
2022/08/02 09:45:36;;;;;;;6.00;1.50;;;25.50;99.90;;;;;;5076075;28;20071;-47
2022/08/02 09:48:06;;;;;;;4.20;1.50;;;24.60;99.90;;;;;;5076520;28;21517;-46
2022/08/02 09:50:33;;;;;;;5.03;1.50;;;24.70;99.90;;;;;;5076447;28;20101;-44
2022/08/02 09:53:01;;;;;;;11.10;1.90;;;24.90;99.90;;;;;;5073797;28;20433;-48
2022/08/02 09:55:27;;;;;;;7.32;2.17;;;24.90;99.90;;;;;;5076709;28;20119;-46
2022/08/02 09:57:53;;;;;;;5.45;1.70;;;25.00;99.90;;;;;;5075858;28;20584;-46
2022/08/02 10:00:19;;;;;;;7.15;1.63;;;25.10;99.90;;;;;;5076112;28;20054;-46
2022/08/02 10:03:08;;;;;;;6.65;1.90;;;25.10;99.90;;;;;;5076336;28;20127;-48
2022/08/02 10:05:52;;;;;;;5.45;2.08;;;25.40;99.90;;;;;;5076259;28;20044;-47
2022/08/02 10:08:19;;;;;;;4.65;2.40;;;25.70;99.90;;;;;;5074803;28;20457;-49
2022/08/02 10:10:45;;;;;;;5.40;2.35;;;25.40;99.90;;;;;;5077017;28;20094;-45
2022/08/02 10:13:11;;;;;;;7.05;2.42;;;25.40;99.90;;;;;;5076401;28;20135;-48
2022/08/02 10:15:37;;;;;;;6.88;2.65;;;27.30;99.90;;;;;;5076917;28;20160;-49
2022/08/02 10:18:07;;;;;;;9.88;2.15;;;25.40;99.90;;;;;;5076357;28;20039;-48
2022/08/02 10:20:41;;;;;;;6.72;2.40;;;25.90;99.90;;;;;;5075934;28;20040;-46
2022/08/02 10:23:11;;;;;;;7.63;2.92;;;25.60;99.90;;;;;;5075560;28;20046;-50
2022/08/02 10:25:38;;;;;;;7.20;2.25;;;25.80;99.90;;;;;;5076462;28;20134;-45
2022/08/02 10:28:06;;;;;;;9.43;2.67;;;26.30;99.90;;;;;;5075384;28;20097;-49
2022/08/02 10:30:35;;;;;;;6.10;2.47;;;25.90;99.90;;;;;;5076267;28;20032;-50
2022/08/02 10:33:02;;;;;;;7.63;2.95;;;25.70;99.90;;;;;;5074824;28;20044;-46
2022/08/02 10:35:33;;;;;;;7.85;3.08;;;25.40;99.90;;;;;;5074950;28;20388;-48
2022/08/02 10:38:06;;;;;;;7.27;2.30;;;25.50;99.90;;;;;;5075896;28;20109;-49
2022/08/02 10:40:53;;;;;;;8.05;2.80;;;25.60;99.90;;;;;;5077239;28;20403;-47
2022/08/02 10:43:39;;;;;;;6.15;2.65;;;25.60;99.90;;;;;;5076039;28;20531;-51
2022/08/02 10:46:35;;;;;;;7.65;2.88;;;25.60;99.90;;;;;;5076051;28;20105;-47
2022/08/02 10:49:18;;;;;;;8.32;3.10;;;25.70;99.90;;;;;;5074108;28;20122;-49
2022/08/02 10:52:02;;;;;;;9.57;2.60;;;27.40;99.90;;;;;;5075103;28;20082;-50
2022/08/02 10:54:55;;;;;;;11.27;2.50;;;25.60;99.90;;;;;;5072921;28;20036;-49
2022/08/02 10:57:24;;;;;;;8.93;2.85;;;25.70;99.90;;;;;;5051882;28;20072;-48
2022/08/02 10:59:53;;;;;;;5.85;2.47;;;25.70;99.90;;;;;;5051491;28;20056;-48
2022/08/02 11:02:38;;;;;;;7.15;2.70;;;25.40;99.90;;;;;;5050820;28;20056;-45
2022/08/02 11:05:14;;;;;;;5.28;2.60;;;25.20;99.90;;;;;;5051708;28;20837;-45
2022/08/02 11:07:43;;;;;;;6.68;2.70;;;25.10;99.90;;;;;;5051348;28;20082;-46
2022/08/02 11:10:30;;;;;;;7.10;2.50;;;24.80;99.90;;;;;;5051656;28;20051;-49
2022/08/02 11:13:04;;;;;;;5.43;2.40;;;24.90;99.90;;;;;;5052876;28;20075;-46
2022/08/02 11:16:00;;;;;;;4.60;2.22;;;25.00;99.90;;;;;;5051270;28;20048;-45
2022/08/02 11:18:50;;;;;;;6.78;2.33;;;25.10;99.90;;;;;;5050883;28;20041;-49
2022/08/02 11:21:59;;;;;;;6.32;2.38;;;25.40;99.90;;;;;;5050956;28;20434;-50
2022/08/02 11:24:33;;;;;;;4.95;2.38;;;25.50;99.90;;;;;;4991925;28;20104;-47
2022/08/02 11:27:03;;;;;;;6.93;2.78;;;25.40;99.90;;;;;;4991461;28;20057;-44
2022/08/02 11:29:40;;;;;;;8.27;3.50;;;25.30;99.90;;;;;;4990923;28;20450;-49
2022/08/02 11:32:27;;;;;;;7.78;3.22;;;25.10;99.90;;;;;;4992028;28;20041;-46
2022/08/02 11:34:54;;;;;;;5.28;2.30;;;25.20;99.90;;;;;;5006864;28;20049;-48
2022/08/02 11:37:35;;;;;;;8.23;2.83;;;25.30;99.90;;;;;;5011507;28;20044;-47
2022/08/02 11:40:03;;;;;;;6.47;3.78;;;25.60;99.90;;;;;;5012341;28;20096;-48
2022/08/02 11:42:36;;;;;;;7.55;3.83;;;25.40;99.90;;;;;;5013125;28;20053;-47
2022/08/02 11:45:05;;;;;;;15.00;4.63;;;25.30;99.90;;;;;;4995771;28;20259;-47
2022/08/02 11:47:33;;;;;;;8.52;4.80;;;25.60;99.90;;;;;;5012151;28;20548;-44
2022/08/02 11:50:06;;;;;;;11.07;3.95;;;25.50;99.90;;;;;;5012241;28;20076;-49
2022/08/02 11:52:33;;;;;;;8.75;3.72;;;25.60;99.90;;;;;;5012300;28;20132;-45
2022/08/02 11:55:02;;;;;;;6.72;3.88;;;25.50;99.90;;;;;;5011885;28;20073;-46
2022/08/02 11:57:27;;;;;;;9.07;4.13;;;25.30;99.90;;;;;;4994966;28;20064;-46
2022/08/02 11:59:55;;;;;;;8.65;4.20;;;25.10;99.90;;;;;;5043362;28;20680;-44
2022/08/02 12:02:24;;;;;;;9.90;3.28;;;25.10;99.90;;;;;;5073974;28;20059;-48
2022/08/02 12:05:02;;;;;;;6.97;3.00;;;25.20;99.90;;;;;;5073696;28;20040;-46
2022/08/02 12:07:30;;;;;;;6.57;2.42;;;24.90;99.90;;;;;;5073382;28;20664;-45
2022/08/02 12:10:00;;;;;;;12.10;2.85;;;24.80;99.90;;;;;;5072947;28;21331;-46
2022/08/02 12:12:26;;;;;;;8.85;3.17;;;24.50;99.90;;;;;;5074085;28;20504;-44
2022/08/02 12:14:52;;;;;;;8.80;3.10;;;24.60;99.90;;;;;;5067991;28;20044;-44
2022/08/02 12:20:10;;;;;;;6.60;3.40;;;24.60;99.90;;;;;;5072791;28;20047;-42
2022/08/02 12:22:37;;;;;;;6.03;3.20;;;24.70;99.90;;;;;;5073515;28;20385;-47
2022/08/02 12:25:23;;;;;;;6.63;3.63;;;24.40;99.90;;;;;;5073952;28;20156;-47
2022/08/02 12:27:48;;;;;;;8.07;4.10;;;24.60;99.90;;;;;;5072866;28;20080;-48
2022/08/02 12:30:17;;;;;;;7.13;3.58;;;24.40;99.90;;;;;;5072499;28;20462;-45
2022/08/02 12:32:45;;;;;;;7.13;4.07;;;24.20;99.90;;;;;;5072279;28;20044;-47
2022/08/02 12:35:15;;;;;;;8.90;4.03;;;24.20;99.90;;;;;;5072343;28;20074;-46
2022/08/02 12:37:44;;;;;;;7.30;3.95;;;24.10;99.90;;;;;;5072161;28;20032;-43
2022/08/02 12:40:21;;;;;;;8.90;4.65;;;24.10;99.90;;;;;;5072498;28;20056;-44
2022/08/02 12:42:49;;;;;;;9.82;3.75;;;24.00;99.90;;;;;;5073133;28;20518;-44
2022/08/02 12:45:15;;;;;;;9.93;5.22;;;23.90;99.90;;;;;;5073841;28;20036;-45
2022/08/02 12:47:50;;;;;;;9.55;4.22;;;23.90;99.90;;;;;;5089107;28;20039;-47
2022/08/02 12:50:33;;;;;;;8.27;4.55;;;23.90;99.90;;;;;;5073939;28;20131;-45
2022/08/02 12:53:10;;;;;;;10.02;4.43;;;21.70;99.90;;;;;;5074350;28;20064;-47
2022/08/02 12:55:47;;;;;;;11.77;4.30;;;24.20;99.90;;;;;;5073452;28;20450;-45
2022/08/02 12:58:15;;;;;;;7.95;3.80;;;23.90;99.90;;;;;;5073088;28;20048;-45
2022/08/02 13:00:42;;;;;;;7.22;4.30;;;24.00;99.90;;;;;;5074623;28;20092;-45